Terminal Aerodrome Forecast
Issued by NWS Tampa Bay Area, FL

Home | Current Version | Previous Version | Text Only | Print | Product List | Glossary On
Versions: 1 2 3 4 5 6 7 8 9 10 11 12 13 14 15 16
146
FTUS42 KTBW 042016 AAA
TAFSRQ
TAF AMD
KSRQ 042016Z 0420/0518 15010KT P6SM VCTS SCT010CB BKN025 OVC100
      TEMPO 0421/0423 VRB15G25KT 2SM +TSRA BKN010CB
     FM042300 22009KT P6SM VCSH SCT010 BKN025 OVC100
     FM050100 29010KT P6SM SCT025 BKN060
     FM050600 30010KT P6SM FEW025 SCT060
     FM051400 30012KT P6SM SCT060=

USA.gov is the U.S. government's official web portal to all federal, state and local government web resources and services.